sensor_id;sensor_type;location;lat;lon;timestamp;temperature;humidity
21672;DHT22;10997;52.242;8.168;2023-01-19T00:00:53;0.70;99.90
21672;DHT22;10997;52.242;8.168;2023-01-19T00:05:53;0.80;99.90
21672;DHT22;10997;52.242;8.168;2023-01-19T00:10:54;0.80;99.90
21672;DHT22;10997;52.242;8.168;2023-01-19T00:15:55;0.80;99.90
21672;DHT22;10997;52.242;8.168;2023-01-19T00:20:56;0.80;99.90
21672;DHT22;10997;52.242;8.168;2023-01-19T00:25:57;0.90;99.90
21672;DHT22;10997;52.242;8.168;2023-01-19T00:30:58;0.90;99.90
21672;DHT22;10997;52.242;8.168;2023-01-19T00:35:59;1.00;99.90
21672;DHT22;10997;52.242;8.168;2023-01-19T00:40:59;1.00;99.90
21672;DHT22;10997;52.242;8.168;2023-01-19T00:46:00;1.00;99.90
21672;DHT22;10997;52.242;8.168;2023-01-19T00:51:00;1.10;99.90
21672;DHT22;10997;52.242;8.168;2023-01-19T00:56:01;1.10;99.90
21672;DHT22;10997;52.242;8.168;2023-01-19T01:01:01;1.10;99.90
21672;DHT22;10997;52.242;8.168;2023-01-19T01:06:04;1.20;99.90
21672;DHT22;10997;52.242;8.168;2023-01-19T01:11:07;1.20;99.90
21672;DHT22;10997;52.242;8.168;2023-01-19T01:16:08;1.20;99.90
21672;DHT22;10997;52.242;8.168;2023-01-19T01:21:09;1.30;99.90
21672;DHT22;10997;52.242;8.168;2023-01-19T01:26:12;1.30;99.90
21672;DHT22;10997;52.242;8.168;2023-01-19T01:31:12;1.40;99.90
21672;DHT22;10997;52.242;8.168;2023-01-19T01:36:13;1.40;99.90
21672;DHT22;10997;52.242;8.168;2023-01-19T01:41:14;1.40;99.90
21672;DHT22;10997;52.242;8.168;2023-01-19T01:46:15;1.40;99.90
21672;DHT22;10997;52.242;8.168;2023-01-19T01:51:31;1.40;99.90
21672;DHT22;10997;52.242;8.168;2023-01-19T01:56:37;1.40;99.90
21672;DHT22;10997;52.242;8.168;2023-01-19T02:01:38;1.40;99.90
21672;DHT22;10997;52.242;8.168;2023-01-19T02:06:57;1.50;99.90
21672;DHT22;10997;52.242;8.168;2023-01-19T02:12:16;1.50;99.90
21672;DHT22;10997;52.242;8.168;2023-01-19T02:17:36;1.50;99.90
21672;DHT22;10997;52.242;8.168;2023-01-19T02:22:48;1.50;99.90
21672;DHT22;10997;52.242;8.168;2023-01-19T02:27:49;1.50;99.90
21672;DHT22;10997;52.242;8.168;2023-01-19T02:32:50;1.60;99.90
21672;DHT22;10997;52.242;8.168;2023-01-19T02:37:52;1.60;99.90
21672;DHT22;10997;52.242;8.168;2023-01-19T02:42:55;1.60;99.90
21672;DHT22;10997;52.242;8.168;2023-01-19T02:47:57;1.60;99.90
21672;DHT22;10997;52.242;8.168;2023-01-19T02:58:35;1.60;99.90
21672;DHT22;10997;52.242;8.168;2023-01-19T03:03:54;1.60;99.90
21672;DHT22;10997;52.242;8.168;2023-01-19T03:09:26;1.60;99.90
21672;DHT22;10997;52.242;8.168;2023-01-19T03:14:29;1.60;99.90
21672;DHT22;10997;52.242;8.168;2023-01-19T03:19:39;1.70;99.90
21672;DHT22;10997;52.242;8.168;2023-01-19T03:24:42;1.70;99.90
21672;DHT22;10997;52.242;8.168;2023-01-19T03:29:50;1.60;99.90
21672;DHT22;10997;52.242;8.168;2023-01-19T03:34:52;1.60;99.90
21672;DHT22;10997;52.242;8.168;2023-01-19T03:39:54;1.50;99.90
21672;DHT22;10997;52.242;8.168;2023-01-19T03:44:56;1.50;99.90
21672;DHT22;10997;52.242;8.168;2023-01-19T03:50:01;1.50;99.90
21672;DHT22;10997;52.242;8.168;2023-01-19T03:55:04;1.50;99.90
21672;DHT22;10997;52.242;8.168;2023-01-19T04:00:05;1.50;99.90
21672;DHT22;10997;52.242;8.168;2023-01-19T04:05:06;1.50;99.90
21672;DHT22;10997;52.242;8.168;2023-01-19T04:10:08;1.50;99.90
21672;DHT22;10997;52.242;8.168;2023-01-19T04:15:18;1.50;99.90
21672;DHT22;10997;52.242;8.168;2023-01-19T04:20:18;1.50;99.90
21672;DHT22;10997;52.242;8.168;2023-01-19T04:25:21;1.50;99.90
21672;DHT22;10997;52.242;8.168;2023-01-19T04:30:21;1.50;99.90
21672;DHT22;10997;52.242;8.168;2023-01-19T04:35:22;1.50;99.90
21672;DHT22;10997;52.242;8.168;2023-01-19T04:40:23;1.50;99.90
21672;DHT22;10997;52.242;8.168;2023-01-19T04:45:23;1.50;99.90
21672;DHT22;10997;52.242;8.168;2023-01-19T04:50:24;1.50;99.90
21672;DHT22;10997;52.242;8.168;2023-01-19T04:55:25;1.60;99.90
21672;DHT22;10997;52.242;8.168;2023-01-19T05:00:25;1.60;99.90
21672;DHT22;10997;52.242;8.168;2023-01-19T05:05:26;1.60;99.90
21672;DHT22;10997;52.242;8.168;2023-01-19T05:10:30;1.60;99.90
21672;DHT22;10997;52.242;8.168;2023-01-19T05:15:30;1.70;99.90
21672;DHT22;10997;52.242;8.168;2023-01-19T05:20:31;1.70;99.90
21672;DHT22;10997;52.242;8.168;2023-01-19T05:25:32;1.70;99.90
21672;DHT22;10997;52.242;8.168;2023-01-19T05:30:32;1.70;99.90
21672;DHT22;10997;52.242;8.168;2023-01-19T05:35:33;1.60;99.90
21672;DHT22;10997;52.242;8.168;2023-01-19T05:40:33;1.60;99.90
21672;DHT22;10997;52.242;8.168;2023-01-19T05:45:34;1.60;99.90
21672;DHT22;10997;52.242;8.168;2023-01-19T05:50:35;1.60;99.90
21672;DHT22;10997;52.242;8.168;2023-01-19T05:55:35;1.60;99.90
21672;DHT22;10997;52.242;8.168;2023-01-19T06:00:36;1.50;99.90
21672;DHT22;10997;52.242;8.168;2023-01-19T06:05:36;1.50;99.90
21672;DHT22;10997;52.242;8.168;2023-01-19T06:10:38;1.50;99.90
21672;DHT22;10997;52.242;8.168;2023-01-19T06:15:39;1.40;99.90
21672;DHT22;10997;52.242;8.168;2023-01-19T06:20:40;1.40;99.90
21672;DHT22;10997;52.242;8.168;2023-01-19T06:25:40;1.40;99.90
21672;DHT22;10997;52.242;8.168;2023-01-19T06:30:41;1.40;99.90
21672;DHT22;10997;52.242;8.168;2023-01-19T06:35:42;1.30;99.90
21672;DHT22;10997;52.242;8.168;2023-01-19T06:40:44;1.30;99.90
21672;DHT22;10997;52.242;8.168;2023-01-19T06:45:46;1.30;99.90
21672;DHT22;10997;52.242;8.168;2023-01-19T06:50:47;1.20;99.90
21672;DHT22;10997;52.242;8.168;2023-01-19T06:55:48;1.20;99.90
21672;DHT22;10997;52.242;8.168;2023-01-19T07:00:48;1.20;99.90
21672;DHT22;10997;52.242;8.168;2023-01-19T07:05:52;1.10;99.90
21672;DHT22;10997;52.242;8.168;2023-01-19T07:11:08;1.10;99.90
21672;DHT22;10997;52.242;8.168;2023-01-19T07:16:11;1.10;99.90
21672;DHT22;10997;52.242;8.168;2023-01-19T07:21:11;1.10;99.90
21672;DHT22;10997;52.242;8.168;2023-01-19T07:26:12;1.10;99.90
21672;DHT22;10997;52.242;8.168;2023-01-19T07:31:15;1.10;99.90
21672;DHT22;10997;52.242;8.168;2023-01-19T07:36:15;1.00;99.90
21672;DHT22;10997;52.242;8.168;2023-01-19T07:41:16;1.00;99.90
21672;DHT22;10997;52.242;8.168;2023-01-19T07:46:16;1.00;99.90
21672;DHT22;10997;52.242;8.168;2023-01-19T07:51:17;1.00;99.90
21672;DHT22;10997;52.242;8.168;2023-01-19T07:56:18;1.00;99.90
21672;DHT22;10997;52.242;8.168;2023-01-19T08:01:33;1.10;99.90
21672;DHT22;10997;52.242;8.168;2023-01-19T08:06:36;1.10;99.90
21672;DHT22;10997;52.242;8.168;2023-01-19T08:11:37;1.10;99.90
21672;DHT22;10997;52.242;8.168;2023-01-19T08:16:38;1.20;99.90
21672;DHT22;10997;52.242;8.168;2023-01-19T08:21:38;1.20;99.90
21672;DHT22;10997;52.242;8.168;2023-01-19T08:26:39;1.20;99.90
21672;DHT22;10997;52.242;8.168;2023-01-19T08:31:40;1.30;99.90
21672;DHT22;10997;52.242;8.168;2023-01-19T08:36:41;1.30;99.90
21672;DHT22;10997;52.242;8.168;2023-01-19T08:41:42;1.40;99.90
21672;DHT22;10997;52.242;8.168;2023-01-19T08:46:43;1.40;99.90
21672;DHT22;10997;52.242;8.168;2023-01-19T08:57:24;1.50;99.90
21672;DHT22;10997;52.242;8.168;2023-01-19T09:02:26;1.60;99.90
21672;DHT22;10997;52.242;8.168;2023-01-19T09:07:26;1.70;99.90
21672;DHT22;10997;52.242;8.168;2023-01-19T09:12:28;1.70;99.90
21672;DHT22;10997;52.242;8.168;2023-01-19T09:17:28;1.80;99.90
21672;DHT22;10997;52.242;8.168;2023-01-19T09:22:29;1.90;99.90
21672;DHT22;10997;52.242;8.168;2023-01-19T09:27:29;1.90;99.90
21672;DHT22;10997;52.242;8.168;2023-01-19T09:32:30;1.70;99.90
21672;DHT22;10997;52.242;8.168;2023-01-19T09:37:31;1.60;99.90
21672;DHT22;10997;52.242;8.168;2023-01-19T09:42:41;1.60;99.90
21672;DHT22;10997;52.242;8.168;2023-01-19T09:47:44;1.60;99.90
21672;DHT22;10997;52.242;8.168;2023-01-19T09:52:54;1.70;99.90
21672;DHT22;10997;52.242;8.168;2023-01-19T09:57:55;1.80;99.90
21672;DHT22;10997;52.242;8.168;2023-01-19T10:03:11;1.90;99.90
21672;DHT22;10997;52.242;8.168;2023-01-19T10:13:48;2.20;99.90
21672;DHT22;10997;52.242;8.168;2023-01-19T10:18:51;2.30;99.90
21672;DHT22;10997;52.242;8.168;2023-01-19T10:24:16;2.30;99.90
21672;DHT22;10997;52.242;8.168;2023-01-19T10:29:31;2.30;99.90
21672;DHT22;10997;52.242;8.168;2023-01-19T10:34:39;2.30;99.90
21672;DHT22;10997;52.242;8.168;2023-01-19T10:39:41;2.40;99.90
21672;DHT22;10997;52.242;8.168;2023-01-19T10:44:43;2.50;99.90
21672;DHT22;10997;52.242;8.168;2023-01-19T10:49:47;2.50;99.90
21672;DHT22;10997;52.242;8.168;2023-01-19T10:54:48;2.50;99.90
21672;DHT22;10997;52.242;8.168;2023-01-19T10:59:49;2.60;99.90
21672;DHT22;10997;52.242;8.168;2023-01-19T11:04:51;2.70;99.90
21672;DHT22;10997;52.242;8.168;2023-01-19T11:20:48;3.10;99.90
21672;DHT22;10997;52.242;8.168;2023-01-19T11:25:51;3.10;99.90
21672;DHT22;10997;52.242;8.168;2023-01-19T11:31:00;3.20;99.90
21672;DHT22;10997;52.242;8.168;2023-01-19T11:36:03;3.10;99.90
21672;DHT22;10997;52.242;8.168;2023-01-19T11:41:04;3.10;99.90
21672;DHT22;10997;52.242;8.168;2023-01-19T11:46:11;3.10;99.90
21672;DHT22;10997;52.242;8.168;2023-01-19T11:51:15;3.10;99.90
21672;DHT22;10997;52.242;8.168;2023-01-19T11:56:19;3.40;99.90
21672;DHT22;10997;52.242;8.168;2023-01-19T12:01:30;3.70;99.90
21672;DHT22;10997;52.242;8.168;2023-01-19T12:06:38;4.00;99.90
21672;DHT22;10997;52.242;8.168;2023-01-19T12:11:45;4.10;99.90
21672;DHT22;10997;52.242;8.168;2023-01-19T12:16:50;4.40;99.90
21672;DHT22;10997;52.242;8.168;2023-01-19T12:21:52;4.50;99.90
21672;DHT22;10997;52.242;8.168;2023-01-19T12:26:58;4.60;99.90
21672;DHT22;10997;52.242;8.168;2023-01-19T12:37:39;4.80;99.90
21672;DHT22;10997;52.242;8.168;2023-01-19T12:42:44;4.70;99.90
21672;DHT22;10997;52.242;8.168;2023-01-19T12:47:50;4.60;99.90
21672;DHT22;10997;52.242;8.168;2023-01-19T12:53:01;4.60;99.90
21672;DHT22;10997;52.242;8.168;2023-01-19T12:58:07;4.80;99.90
21672;DHT22;10997;52.242;8.168;2023-01-19T13:08:24;4.80;99.90
21672;DHT22;10997;52.242;8.168;2023-01-19T13:18:29;4.80;99.90
21672;DHT22;10997;52.242;8.168;2023-01-19T13:28:55;4.90;99.90
21672;DHT22;10997;52.242;8.168;2023-01-19T13:33:58;4.70;99.90
21672;DHT22;10997;52.242;8.168;2023-01-19T13:39:03;4.50;99.90
21672;DHT22;10997;52.242;8.168;2023-01-19T13:44:18;4.40;99.90
21672;DHT22;10997;52.242;8.168;2023-01-19T13:49:33;4.50;99.90
21672;DHT22;10997;52.242;8.168;2023-01-19T13:54:34;4.30;99.90
21672;DHT22;10997;52.242;8.168;2023-01-19T13:59:35;4.40;99.90
21672;DHT22;10997;52.242;8.168;2023-01-19T14:04:35;4.50;99.90
21672;DHT22;10997;52.242;8.168;2023-01-19T14:09:36;4.60;99.90
21672;DHT22;10997;52.242;8.168;2023-01-19T14:14:37;4.60;99.90
21672;DHT22;10997;52.242;8.168;2023-01-19T14:19:48;4.50;99.90
21672;DHT22;10997;52.242;8.168;2023-01-19T14:24:49;4.50;99.90
21672;DHT22;10997;52.242;8.168;2023-01-19T14:29:51;4.50;99.90
21672;DHT22;10997;52.242;8.168;2023-01-19T14:50:37;4.10;99.90
21672;DHT22;10997;52.242;8.168;2023-01-19T14:55:43;4.00;99.90
21672;DHT22;10997;52.242;8.168;2023-01-19T15:00:46;3.80;99.90
21672;DHT22;10997;52.242;8.168;2023-01-19T15:05:48;3.70;99.90
21672;DHT22;10997;52.242;8.168;2023-01-19T15:10:50;3.60;99.90
21672;DHT22;10997;52.242;8.168;2023-01-19T15:15:51;3.50;99.90
21672;DHT22;10997;52.242;8.168;2023-01-19T15:20:53;3.40;99.90
21672;DHT22;10997;52.242;8.168;2023-01-19T15:26:03;3.20;99.90
21672;DHT22;10997;52.242;8.168;2023-01-19T15:31:09;3.10;99.90
21672;DHT22;10997;52.242;8.168;2023-01-19T15:36:17;3.00;99.90
21672;DHT22;10997;52.242;8.168;2023-01-19T15:41:22;2.90;99.90
21672;DHT22;10997;52.242;8.168;2023-01-19T15:46:24;2.80;99.90
21672;DHT22;10997;52.242;8.168;2023-01-19T15:51:26;2.60;99.90
21672;DHT22;10997;52.242;8.168;2023-01-19T15:56:29;2.60;99.90
21672;DHT22;10997;52.242;8.168;2023-01-19T16:01:30;2.50;99.90
21672;DHT22;10997;52.242;8.168;2023-01-19T16:06:32;2.40;99.90
21672;DHT22;10997;52.242;8.168;2023-01-19T16:11:33;2.40;99.90
21672;DHT22;10997;52.242;8.168;2023-01-19T16:16:34;2.30;99.90
21672;DHT22;10997;52.242;8.168;2023-01-19T16:21:35;2.20;99.90
21672;DHT22;10997;52.242;8.168;2023-01-19T16:26:35;2.10;99.90
21672;DHT22;10997;52.242;8.168;2023-01-19T16:31:41;2.10;99.90
21672;DHT22;10997;52.242;8.168;2023-01-19T16:36:42;2.10;99.90
21672;DHT22;10997;52.242;8.168;2023-01-19T16:41:43;2.10;99.90
21672;DHT22;10997;52.242;8.168;2023-01-19T16:46:46;2.10;99.90
21672;DHT22;10997;52.242;8.168;2023-01-19T16:51:49;2.10;99.90
21672;DHT22;10997;52.242;8.168;2023-01-19T16:56:50;2.00;99.90
21672;DHT22;10997;52.242;8.168;2023-01-19T17:01:51;2.00;99.90
21672;DHT22;10997;52.242;8.168;2023-01-19T17:06:52;1.90;99.90
21672;DHT22;10997;52.242;8.168;2023-01-19T17:11:53;1.90;99.90
21672;DHT22;10997;52.242;8.168;2023-01-19T17:16:54;1.90;99.90
21672;DHT22;10997;52.242;8.168;2023-01-19T17:21:55;1.90;99.90
21672;DHT22;10997;52.242;8.168;2023-01-19T17:26:55;1.90;99.90
21672;DHT22;10997;52.242;8.168;2023-01-19T17:31:56;1.90;99.90
21672;DHT22;10997;52.242;8.168;2023-01-19T17:36:57;1.90;99.90
21672;DHT22;10997;52.242;8.168;2023-01-19T17:42:02;2.00;99.90
21672;DHT22;10997;52.242;8.168;2023-01-19T17:47:03;2.10;99.90
21672;DHT22;10997;52.242;8.168;2023-01-19T17:52:03;2.10;99.90
21672;DHT22;10997;52.242;8.168;2023-01-19T17:57:04;2.10;99.90
21672;DHT22;10997;52.242;8.168;2023-01-19T18:02:05;2.20;99.90
21672;DHT22;10997;52.242;8.168;2023-01-19T18:07:05;2.20;99.90
21672;DHT22;10997;52.242;8.168;2023-01-19T18:12:06;2.20;99.90
21672;DHT22;10997;52.242;8.168;2023-01-19T18:17:07;2.20;99.90
21672;DHT22;10997;52.242;8.168;2023-01-19T18:22:07;2.20;99.90
21672;DHT22;10997;52.242;8.168;2023-01-19T18:27:08;2.10;99.90
21672;DHT22;10997;52.242;8.168;2023-01-19T18:32:09;2.10;99.90
21672;DHT22;10997;52.242;8.168;2023-01-19T18:37:10;2.10;99.90
21672;DHT22;10997;52.242;8.168;2023-01-19T18:42:10;2.10;99.90
21672;DHT22;10997;52.242;8.168;2023-01-19T18:47:11;2.00;99.90
21672;DHT22;10997;52.242;8.168;2023-01-19T18:52:11;1.90;99.90
21672;DHT22;10997;52.242;8.168;2023-01-19T18:57:12;1.90;99.90
21672;DHT22;10997;52.242;8.168;2023-01-19T19:02:13;1.90;99.90
21672;DHT22;10997;52.242;8.168;2023-01-19T19:07:13;1.90;99.90
21672;DHT22;10997;52.242;8.168;2023-01-19T19:12:14;1.90;99.90
21672;DHT22;10997;52.242;8.168;2023-01-19T19:17:14;1.80;99.90
21672;DHT22;10997;52.242;8.168;2023-01-19T19:22:15;1.80;99.90
21672;DHT22;10997;52.242;8.168;2023-01-19T19:27:16;1.70;99.90
21672;DHT22;10997;52.242;8.168;2023-01-19T19:32:17;1.70;99.90
21672;DHT22;10997;52.242;8.168;2023-01-19T19:37:19;1.70;99.90
21672;DHT22;10997;52.242;8.168;2023-01-19T19:42:20;1.70;99.90
21672;DHT22;10997;52.242;8.168;2023-01-19T19:47:21;1.70;99.90
21672;DHT22;10997;52.242;8.168;2023-01-19T19:52:21;1.70;99.90
21672;DHT22;10997;52.242;8.168;2023-01-19T19:57:22;1.60;99.90
21672;DHT22;10997;52.242;8.168;2023-01-19T20:02:23;1.50;99.90
21672;DHT22;10997;52.242;8.168;2023-01-19T20:07:24;1.50;99.90
21672;DHT22;10997;52.242;8.168;2023-01-19T20:18:08;1.40;99.90
21672;DHT22;10997;52.242;8.168;2023-01-19T20:23:09;1.40;99.90
21672;DHT22;10997;52.242;8.168;2023-01-19T20:28:21;1.20;99.90
21672;DHT22;10997;52.242;8.168;2023-01-19T20:33:22;1.20;99.90
21672;DHT22;10997;52.242;8.168;2023-01-19T20:38:23;1.20;99.90
21672;DHT22;10997;52.242;8.168;2023-01-19T20:43:24;1.20;99.90
21672;DHT22;10997;52.242;8.168;2023-01-19T20:48:24;1.10;99.90
21672;DHT22;10997;52.242;8.168;2023-01-19T20:53:26;1.10;99.90
21672;DHT22;10997;52.242;8.168;2023-01-19T20:58:26;1.10;99.90
21672;DHT22;10997;52.242;8.168;2023-01-19T21:03:30;1.10;99.90
21672;DHT22;10997;52.242;8.168;2023-01-19T21:08:31;1.10;99.90
21672;DHT22;10997;52.242;8.168;2023-01-19T21:13:33;1.10;99.90
21672;DHT22;10997;52.242;8.168;2023-01-19T21:18:34;1.10;99.90
21672;DHT22;10997;52.242;8.168;2023-01-19T21:23:34;1.10;99.90
21672;DHT22;10997;52.242;8.168;2023-01-19T21:28:35;1.00;99.90
21672;DHT22;10997;52.242;8.168;2023-01-19T21:33:36;1.00;99.90
21672;DHT22;10997;52.242;8.168;2023-01-19T21:38:37;1.00;99.90
21672;DHT22;10997;52.242;8.168;2023-01-19T21:43:39;1.00;99.90
21672;DHT22;10997;52.242;8.168;2023-01-19T21:48:41;1.00;99.90
21672;DHT22;10997;52.242;8.168;2023-01-19T21:53:42;1.00;99.90
21672;DHT22;10997;52.242;8.168;2023-01-19T21:58:48;1.00;99.90
21672;DHT22;10997;52.242;8.168;2023-01-19T22:03:53;1.00;99.90
21672;DHT22;10997;52.242;8.168;2023-01-19T22:08:54;1.00;99.90
21672;DHT22;10997;52.242;8.168;2023-01-19T22:13:55;1.00;99.90
21672;DHT22;10997;52.242;8.168;2023-01-19T22:19:00;1.00;99.90
21672;DHT22;10997;52.242;8.168;2023-01-19T22:24:02;0.90;99.90
21672;DHT22;10997;52.242;8.168;2023-01-19T22:29:05;0.90;99.90
21672;DHT22;10997;52.242;8.168;2023-01-19T22:34:10;0.80;99.90
21672;DHT22;10997;52.242;8.168;2023-01-19T22:39:11;0.80;99.90
21672;DHT22;10997;52.242;8.168;2023-01-19T22:44:15;0.80;99.90
21672;DHT22;10997;52.242;8.168;2023-01-19T22:49:17;0.70;99.90
21672;DHT22;10997;52.242;8.168;2023-01-19T22:54:17;0.70;99.90
21672;DHT22;10997;52.242;8.168;2023-01-19T22:59:18;0.70;99.90
21672;DHT22;10997;52.242;8.168;2023-01-19T23:04:18;0.70;99.90
21672;DHT22;10997;52.242;8.168;2023-01-19T23:09:19;0.70;99.90
21672;DHT22;10997;52.242;8.168;2023-01-19T23:14:21;0.60;99.90
21672;DHT22;10997;52.242;8.168;2023-01-19T23:19:21;0.50;99.90
21672;DHT22;10997;52.242;8.168;2023-01-19T23:24:22;0.40;99.90
21672;DHT22;10997;52.242;8.168;2023-01-19T23:29:22;0.40;99.90
21672;DHT22;10997;52.242;8.168;2023-01-19T23:34:23;0.30;99.90
21672;DHT22;10997;52.242;8.168;2023-01-19T23:39:23;0.30;99.90
21672;DHT22;10997;52.242;8.168;2023-01-19T23:44:24;0.20;99.90
21672;DHT22;10997;52.242;8.168;2023-01-19T23:49:25;0.30;99.90
21672;DHT22;10997;52.242;8.168;2023-01-19T23:54:25;0.30;99.90
21672;DHT22;10997;52.242;8.168;2023-01-19T23:59:26;0.40;99.90
